Ennis, MT

3:24 PM MST on January 19, 2017 (GMT -0700)
Ennis | | Change Station

Elev 4990 ft 45.35 °N, 111.74 °W | Updated 6 seconds ago

Mostly Cloudy
Mostly Cloudy
35.6 °F
Feels Like 26 °F
N
15.2
Wind Variable Wind from SSE
Gusts 19.9 mph

Today
High -- | Low -- °F
--% Chance of Precip.
Yesterday
High -- | Low -- °F
Precip. -- in
Pressure 29.53 in
Visibility 10.0 miles
Clouds Mostly Cloudy 12000 ft
Windchill 26 °F
Dew Point 26 °F
Humidity 67%
Rainfall 0.00 in
Snow Depth Not available.
7:59 AM 5:16 PM
Waning Gibbous, 50% visible
METAR KDLN 192153Z AUTO 09005KT 10SM BKN120 06/M03 A2954 RMK AO2 SLP000 T00561028
Pressure 29.53 in
Visibility 10.0 miles
Clouds Mostly Cloudy 12000 ft
Windchill 26 °F
Dew Point 26 °F
Humidity 67%
Rainfall 0.00 in
Snow Depth Not available.
7:59 AM 5:16 PM
Waning Gibbous, 50% visible
METAR KDLN 192153Z AUTO 09005KT 10SM BKN120 06/M03 A2954 RMK AO2 SLP000 T00561028

Get Your Daily Forecast Email!

Thanks for signing up!

Be on the lookout for a verification email in your inbox.

You'll start receiving the daily forecast at 8 AM.

×

10-Day Weather Forecast

Almanac

Astronomy

Jan. 19, 2017 Rise Set
Actual Time
Civil Twilight
Nautical Twilight
Astronomical Twilight
Moon
Length of Visible Light
Length of Day
Tomorrow will be .
, % of the Moon is Illuminated

Today's Extremes

State Highs State Lows

Community

WunderPhotos

Upload Photos

1,962,540 photos uploaded!

WunderBlog® & News

Nearby

Air Quality

  Air Quality AQ Index Pollutant
Not available.

Snow Depth

Station Depth Elevation

Earthquake Activity

City Distance Mag. Time & Date
Minimum magnitude displayed is 2.5.

Coastal Water Temperatures

Place Temperature

Stations

Nearby Weather Stations

Station Location Temp. Windchill Dew Point Humidity Wind Precip. Elev Updated Type
                   

Watches & Warnings

There are currently no watches in effect.